createdAt,value
2016-09-17T00:00:18.780Z,18.34
2016-09-17T00:01:18.790Z,18.38
2016-09-17T00:02:18.870Z,18.29
2016-09-17T00:03:18.816Z,18.32
2016-09-17T00:04:18.791Z,18.29
2016-09-17T00:05:18.712Z,18.24
2016-09-17T00:06:18.841Z,18.27
2016-09-17T00:07:18.723Z,18.32
2016-09-17T00:08:18.803Z,18.27
2016-09-17T00:09:18.814Z,18.26
2016-09-17T00:10:18.883Z,18.21
2016-09-17T00:11:18.756Z,18.32
2016-09-17T00:12:18.856Z,18.21
2016-09-17T00:13:18.820Z,18.23
2016-09-17T00:14:18.896Z,18.19
2016-09-17T00:15:18.797Z,18.14
2016-09-17T00:16:18.840Z,18.14
2016-09-17T00:17:18.818Z,18.27
2016-09-17T00:18:18.828Z,18.13
2016-09-17T00:19:18.920Z,18.31
2016-09-17T00:20:18.912Z,18.26
2016-09-17T00:21:18.850Z,18.14
2016-09-17T00:22:18.913Z,18.19
2016-09-17T00:23:18.952Z,18.23
2016-09-17T00:24:18.841Z,18.23
2016-09-17T00:25:18.862Z,18.31
2016-09-17T00:26:18.805Z,18.23
2016-09-17T00:27:18.890Z,18.21
2016-09-17T00:28:18.869Z,18.19
2016-09-17T00:29:18.949Z,18.19
2016-09-17T00:30:18.911Z,18.23
2016-09-17T00:31:18.862Z,18.13
2016-09-17T00:32:18.848Z,18.03
2016-09-17T00:33:18.975Z,18.1
2016-09-17T00:34:18.966Z,18.1
2016-09-17T00:35:18.893Z,18.06
2016-09-17T00:36:18.920Z,18.05
2016-09-17T00:37:18.838Z,18.03
2016-09-17T00:38:18.959Z,18.05
2016-09-17T00:39:18.824Z,18.02
2016-09-17T00:40:18.933Z,18.05
2016-09-17T00:41:18.896Z,17.96
2016-09-17T00:42:18.971Z,17.96
2016-09-17T00:43:18.966Z,18.03
2016-09-17T00:44:18.936Z,17.98
2016-09-17T00:45:18.969Z,17.99
2016-09-17T00:46:18.917Z,18.01
2016-09-17T00:47:18.873Z,18.03
2016-09-17T00:48:18.863Z,18.02
2016-09-17T00:49:18.900Z,17.98
2016-09-17T00:50:18.893Z,17.98
2016-09-17T00:51:18.963Z,17.96
2016-09-17T00:52:18.955Z,17.94
2016-09-17T00:53:18.925Z,17.96
2016-09-17T00:54:19.041Z,17.87
2016-09-17T00:55:18.937Z,17.8
2016-09-17T00:56:18.924Z,17.81
2016-09-17T00:57:18.935Z,17.77
2016-09-17T00:58:19.049Z,17.86
2016-09-17T00:59:18.908Z,17.77
2016-09-17T01:00:18.942Z,17.8
2016-09-17T01:01:19.037Z,17.66
2016-09-17T01:02:18.991Z,17.6
2016-09-17T01:03:18.954Z,17.69
2016-09-17T01:04:18.956Z,17.68
2016-09-17T01:05:18.944Z,17.69
2016-09-17T01:06:18.921Z,17.58
2016-09-17T01:07:18.974Z,17.57
2016-09-17T01:08:19.017Z,17.62
2016-09-17T01:09:18.992Z,17.5
2016-09-17T01:10:19.020Z,17.6
2016-09-17T01:11:18.976Z,17.6
2016-09-17T01:12:18.965Z,17.63
2016-09-17T01:13:18.972Z,17.55
2016-09-17T01:14:19.030Z,17.69
2016-09-17T01:15:19.069Z,17.77
2016-09-17T01:16:18.995Z,17.8
2016-09-17T01:17:19.034Z,17.76
2016-09-17T01:18:19.044Z,17.69
2016-09-17T01:19:19.001Z,17.79
2016-09-17T01:20:19.097Z,17.66
2016-09-17T01:21:18.964Z,17.63
2016-09-17T01:22:18.973Z,17.65
2016-09-17T01:23:19.054Z,17.54
2016-09-17T01:24:19.022Z,17.6
2016-09-17T01:25:18.950Z,17.55
2016-09-17T01:26:19.110Z,17.57
2016-09-17T01:27:19.080Z,17.52
2016-09-17T01:28:19.103Z,17.43
2016-09-17T01:29:19.040Z,17.57
2016-09-17T01:30:19.118Z,17.57
2016-09-17T01:31:18.989Z,17.54
2016-09-17T01:32:19.009Z,17.54
2016-09-17T01:33:18.958Z,17.63
2016-09-17T01:34:19.096Z,17.57
2016-09-17T01:35:19.084Z,17.52
2016-09-17T01:36:19.094Z,17.55
2016-09-17T01:37:19.138Z,17.54
2016-09-17T01:38:19.138Z,17.5
2016-09-17T01:39:18.984Z,17.57
2016-09-17T01:40:19.120Z,17.5
2016-09-17T01:41:19.062Z,17.55
2016-09-17T01:42:19.131Z,17.55
2016-09-17T01:43:19.068Z,17.58
2016-09-17T01:44:19.147Z,17.54
2016-09-17T01:45:19.118Z,17.43
2016-09-17T01:46:19.132Z,17.31
2016-09-17T01:47:19.086Z,17.27
2016-09-17T01:48:19.096Z,17.2
2016-09-17T01:49:19.095Z,17.1
2016-09-17T01:50:19.083Z,16.99
2016-09-17T01:51:19.052Z,17.02
2016-09-17T01:52:19.176Z,16.88
2016-09-17T01:53:19.183Z,16.9
2016-09-17T01:54:19.171Z,16.73
2016-09-17T01:55:19.111Z,16.72
2016-09-17T01:56:19.074Z,16.7
2016-09-17T01:57:19.189Z,16.55
2016-09-17T01:58:19.180Z,16.4
2016-09-17T01:59:19.158Z,16.33
2016-09-17T02:00:19.128Z,16.25
2016-09-17T02:01:19.121Z,16.21
2016-09-17T02:02:19.194Z,16.25
2016-09-17T02:03:19.146Z,16.22
2016-09-17T02:04:19.084Z,16.22
2016-09-17T02:05:19.168Z,16.25
2016-09-17T02:06:19.178Z,16.17
2016-09-17T02:07:19.213Z,16.3
2016-09-17T02:08:19.234Z,16.36
2016-09-17T02:09:19.236Z,16.39
2016-09-17T02:10:19.118Z,16.3
2016-09-17T02:11:19.125Z,16.29
2016-09-17T02:12:19.152Z,16.42
2016-09-17T02:13:19.156Z,16.39
2016-09-17T02:14:19.244Z,16.4
2016-09-17T02:15:19.238Z,16.37
2016-09-17T02:16:19.167Z,16.32
2016-09-17T02:17:19.105Z,16.29
2016-09-17T02:18:19.183Z,16.22
2016-09-17T02:19:19.213Z,16.3
2016-09-17T02:20:19.255Z,16.17
2016-09-17T02:21:19.108Z,16.11
2016-09-17T02:22:19.182Z,16.1
2016-09-17T02:23:19.268Z,16.11
2016-09-17T02:24:19.230Z,16.06
2016-09-17T02:25:19.197Z,16.13
2016-09-17T02:26:19.282Z,16.1
2016-09-17T02:27:19.279Z,16.08
2016-09-17T02:28:19.231Z,16.04
2016-09-17T02:29:19.276Z,16.07
2016-09-17T02:30:19.250Z,16.11
2016-09-17T02:31:19.293Z,16.04
2016-09-17T02:32:19.303Z,16.07
2016-09-17T02:33:19.164Z,16.1
2016-09-17T02:34:19.288Z,15.98
2016-09-17T02:35:19.312Z,15.93
2016-09-17T02:36:19.315Z,16.02
2016-09-17T02:37:19.180Z,16.04
2016-09-17T02:38:19.216Z,16.1
2016-09-17T02:39:19.150Z,16.34
2016-09-17T02:40:19.241Z,16.32
2016-09-17T02:41:19.278Z,16.39
2016-09-17T02:42:19.294Z,16.44
2016-09-17T02:43:19.311Z,16.44
2016-09-17T02:44:19.277Z,16.32
2016-09-17T02:45:19.259Z,16.39
2016-09-17T02:46:19.252Z,16.17
2016-09-17T02:47:19.294Z,16.27
2016-09-17T02:48:19.354Z,16.16
2016-09-17T02:49:19.306Z,16.11
2016-09-17T02:50:19.221Z,16.11
2016-09-17T02:51:19.324Z,15.98
2016-09-17T02:52:19.311Z,15.95
2016-09-17T02:53:19.253Z,15.99
2016-09-17T02:54:19.293Z,15.98
2016-09-17T02:55:19.322Z,15.98
2016-09-17T02:56:19.314Z,15.92
2016-09-17T02:57:19.364Z,15.88
2016-09-17T02:58:19.358Z,15.78
2016-09-17T02:59:19.328Z,15.8
2016-09-17T03:00:19.299Z,15.75
2016-09-17T03:01:19.264Z,15.65
2016-09-17T03:02:19.258Z,15.63
2016-09-17T03:03:19.376Z,15.68
2016-09-17T03:04:19.308Z,15.59
2016-09-17T03:05:19.349Z,15.62
2016-09-17T03:06:19.311Z,15.6
2016-09-17T03:07:19.403Z,15.4
2016-09-17T03:08:19.353Z,15.44
2016-09-17T03:09:19.245Z,15.35
2016-09-17T03:10:19.290Z,15.26
2016-09-17T03:11:19.352Z,15.16
2016-09-17T03:12:19.372Z,15.26
2016-09-17T03:13:19.337Z,15.2
2016-09-17T03:14:19.374Z,15.18
2016-09-17T03:15:19.391Z,15.13
2016-09-17T03:16:19.270Z,15.08
2016-09-17T03:17:19.387Z,15.13
2016-09-17T03:18:19.380Z,15.12
2016-09-17T03:19:19.337Z,15.1
2016-09-17T03:20:19.271Z,15.18
2016-09-17T03:21:19.427Z,15.2
2016-09-17T03:22:19.383Z,15.2
2016-09-17T03:23:19.369Z,15.19
2016-09-17T03:24:19.372Z,15.25
2016-09-17T03:25:19.454Z,15.18
2016-09-17T03:26:19.315Z,15.26
2016-09-17T03:27:19.412Z,15.18
2016-09-17T03:28:19.453Z,15.31
2016-09-17T03:29:19.389Z,15.26
2016-09-17T03:30:19.400Z,15.3
2016-09-17T03:31:19.431Z,15.26
2016-09-17T03:32:19.377Z,15.34
2016-09-17T03:33:19.473Z,15.33
2016-09-17T03:34:19.451Z,15.25
2016-09-17T03:35:19.407Z,15.27
2016-09-17T03:36:19.429Z,15.19
2016-09-17T03:37:19.320Z,15.19
2016-09-17T03:38:19.397Z,15.23
2016-09-17T03:39:19.399Z,15.26
2016-09-17T03:40:19.491Z,15.22
2016-09-17T03:41:19.330Z,15.25
2016-09-17T03:42:19.445Z,15.22
2016-09-17T03:43:19.498Z,15.23
2016-09-17T03:44:19.510Z,15.16
2016-09-17T03:45:19.456Z,15.16
2016-09-17T03:46:19.573Z,15.23
2016-09-17T03:47:19.468Z,15.23
2016-09-17T03:48:19.503Z,15.34
2016-09-17T03:49:19.419Z,15.25
2016-09-17T03:50:19.472Z,15.37
2016-09-17T03:51:19.480Z,15.31
2016-09-17T03:52:19.516Z,15.37
2016-09-17T03:53:19.433Z,15.33
2016-09-17T03:54:19.524Z,15.34
2016-09-17T03:55:19.450Z,15.43
2016-09-17T03:56:19.487Z,15.47
2016-09-17T03:57:19.464Z,15.37
2016-09-17T03:58:19.457Z,15.49
2016-09-17T03:59:19.534Z,15.38
2016-09-17T04:00:19.501Z,15.38
2016-09-17T04:01:19.472Z,15.37
2016-09-17T04:02:19.474Z,15.43
2016-09-17T04:03:19.449Z,15.49
2016-09-17T04:04:19.540Z,15.49
2016-09-17T04:05:19.522Z,15.43
2016-09-17T04:06:19.578Z,15.4
2016-09-17T04:07:19.538Z,15.37
2016-09-17T04:08:19.526Z,15.4
2016-09-17T04:09:19.536Z,15.34
2016-09-17T04:10:19.524Z,15.38
2016-09-17T04:11:19.455Z,15.4
2016-09-17T04:12:19.525Z,15.41
2016-09-17T04:13:19.594Z,15.45
2016-09-17T04:14:19.588Z,15.4
2016-09-17T04:15:19.423Z,15.43
2016-09-17T04:16:19.546Z,15.44
2016-09-17T04:17:19.506Z,15.38
2016-09-17T04:18:19.496Z,15.4
2016-09-17T04:19:19.552Z,15.44
2016-09-17T04:20:19.445Z,15.47
2016-09-17T04:21:19.460Z,15.53
2016-09-17T04:22:19.527Z,15.58
2016-09-17T04:23:19.524Z,15.53
2016-09-17T04:24:19.620Z,15.52
2016-09-17T04:25:19.532Z,15.52
2016-09-17T04:26:19.610Z,15.41
2016-09-17T04:27:19.542Z,15.49
2016-09-17T04:28:19.582Z,15.49
2016-09-17T04:29:19.545Z,15.56
2016-09-17T04:30:19.588Z,15.55
2016-09-17T04:31:19.546Z,15.52
2016-09-17T04:32:19.631Z,15.6
2016-09-17T04:33:19.516Z,15.51
2016-09-17T04:34:19.611Z,15.55
2016-09-17T04:35:19.634Z,15.52
2016-09-17T04:36:19.582Z,15.53
2016-09-17T04:37:19.514Z,15.49
2016-09-17T04:38:19.521Z,15.41
2016-09-17T04:39:19.649Z,15.45
2016-09-17T04:40:19.596Z,15.44
2016-09-17T04:41:19.588Z,15.34
2016-09-17T04:42:19.663Z,15.49
2016-09-17T04:43:19.602Z,15.44
2016-09-17T04:44:19.661Z,15.41
2016-09-17T04:45:19.542Z,15.37
2016-09-17T04:46:19.707Z,15.37
2016-09-17T04:47:19.595Z,15.49
2016-09-17T04:48:19.675Z,15.37
2016-09-17T04:49:19.675Z,15.37
2016-09-17T04:50:19.533Z,15.38
2016-09-17T04:51:19.693Z,15.37
2016-09-17T04:52:19.594Z,15.4
2016-09-17T04:53:19.639Z,15.41
2016-09-17T04:54:19.712Z,15.38
2016-09-17T04:55:19.620Z,15.35
2016-09-17T04:56:19.617Z,15.43
2016-09-17T04:57:19.677Z,15.35
2016-09-17T04:58:19.662Z,15.34
2016-09-17T04:59:19.631Z,15.4
2016-09-17T05:00:19.683Z,15.37
2016-09-17T05:01:19.635Z,15.41
2016-09-17T05:02:19.662Z,15.38
2016-09-17T05:03:19.660Z,15.41
2016-09-17T05:04:19.676Z,15.35
2016-09-17T05:05:19.685Z,15.38
2016-09-17T05:06:19.614Z,15.4
2016-09-17T05:07:19.651Z,15.49
2016-09-17T05:08:19.610Z,15.35
2016-09-17T05:09:19.629Z,15.37
2016-09-17T05:10:19.728Z,15.34
2016-09-17T05:11:19.713Z,15.33
2016-09-17T05:12:19.758Z,15.27
2016-09-17T05:13:19.709Z,15.26
2016-09-17T05:14:19.759Z,15.19
2016-09-17T05:15:19.686Z,15.2
2016-09-17T05:16:19.758Z,15.27
2016-09-17T05:17:19.638Z,15.26
2016-09-17T05:18:19.739Z,15.31
2016-09-17T05:19:19.758Z,15.27
2016-09-17T05:20:19.688Z,15.37
2016-09-17T05:21:19.612Z,15.31
2016-09-17T05:22:19.703Z,15.38
2016-09-17T05:23:19.695Z,15.44
2016-09-17T05:24:19.711Z,15.44
2016-09-17T05:25:19.738Z,15.38
2016-09-17T05:26:19.720Z,15.47
2016-09-17T05:27:19.719Z,15.53
2016-09-17T05:28:19.813Z,15.52
2016-09-17T05:29:19.814Z,15.56
2016-09-17T05:30:19.714Z,15.59
2016-09-17T05:31:19.682Z,15.6
2016-09-17T05:32:19.813Z,15.63
2016-09-17T05:33:19.743Z,15.63
2016-09-17T05:34:19.648Z,15.67
2016-09-17T05:35:19.728Z,15.74
2016-09-17T05:36:19.685Z,15.74
2016-09-17T05:37:19.780Z,15.71
2016-09-17T05:38:19.732Z,15.68
2016-09-17T05:39:19.825Z,15.7
2016-09-17T05:40:19.831Z,15.67
2016-09-17T05:41:19.844Z,15.71
2016-09-17T05:42:19.758Z,15.6
2016-09-17T05:43:19.719Z,15.59
2016-09-17T05:44:19.796Z,15.58
2016-09-17T05:45:19.802Z,15.65
2016-09-17T05:46:19.757Z,15.6
2016-09-17T05:47:19.785Z,15.55
2016-09-17T05:48:19.691Z,15.58
2016-09-17T05:49:19.861Z,15.53
2016-09-17T05:50:19.846Z,15.58
2016-09-17T05:51:19.748Z,15.63
2016-09-17T05:52:19.750Z,15.4
2016-09-17T05:53:19.773Z,15.4
2016-09-17T05:54:19.743Z,15.45
2016-09-17T05:55:19.824Z,15.37
2016-09-17T05:56:19.843Z,15.45
2016-09-17T05:57:19.832Z,15.44
2016-09-17T05:58:19.821Z,15.59
2016-09-17T05:59:19.900Z,15.7
2016-09-17T06:00:19.833Z,15.75
2016-09-17T06:01:19.846Z,15.77
2016-09-17T06:02:19.826Z,15.77
2016-09-17T06:03:19.811Z,15.74
2016-09-17T06:04:19.856Z,15.8
2016-09-17T06:05:19.905Z,15.78
2016-09-17T06:06:19.811Z,15.86
2016-09-17T06:07:19.807Z,15.84
2016-09-17T06:08:19.752Z,15.81
2016-09-17T06:09:19.783Z,15.83
2016-09-17T06:10:19.852Z,15.83
2016-09-17T06:11:19.834Z,15.91
2016-09-17T06:12:19.835Z,15.81
2016-09-17T06:13:19.821Z,15.93
2016-09-17T06:14:19.889Z,15.92
2016-09-17T06:15:19.913Z,15.91
2016-09-17T06:16:19.939Z,15.86
2016-09-17T06:17:19.934Z,15.95
2016-09-17T06:18:19.923Z,15.92
2016-09-17T06:19:19.905Z,15.89
2016-09-17T06:20:19.904Z,15.98
2016-09-17T06:21:19.861Z,15.93
2016-09-17T06:22:19.878Z,15.96
2016-09-17T06:23:19.865Z,15.98
2016-09-17T06:24:19.941Z,15.95
2016-09-17T06:25:19.942Z,15.96
2016-09-17T06:26:19.912Z,16.08
2016-09-17T06:27:19.968Z,16.06
2016-09-17T06:28:19.802Z,16.06
2016-09-17T06:29:19.969Z,16.13
2016-09-17T06:30:19.882Z,16.16
2016-09-17T06:31:19.924Z,16.14
2016-09-17T06:32:19.887Z,16.27
2016-09-17T06:33:19.808Z,16.21
2016-09-17T06:34:19.896Z,16.07
2016-09-17T06:35:19.934Z,16.36
2016-09-17T06:36:19.931Z,16.22
2016-09-17T06:37:19.990Z,16.22
2016-09-17T06:38:19.919Z,16.27
2016-09-17T06:39:19.926Z,16.29
2016-09-17T06:40:19.951Z,16.33
2016-09-17T06:41:20.008Z,16.33
2016-09-17T06:42:20.001Z,16.44
2016-09-17T06:43:19.910Z,16.37
2016-09-17T06:44:19.949Z,16.48
2016-09-17T06:45:19.948Z,16.47
2016-09-17T06:46:20.043Z,16.49
2016-09-17T06:47:20.040Z,16.51
2016-09-17T06:48:20.010Z,16.54
2016-09-17T06:49:19.957Z,16.55
2016-09-17T06:50:20.026Z,16.63
2016-09-17T06:51:19.951Z,16.63
2016-09-17T06:52:19.890Z,16.66
2016-09-17T06:53:19.980Z,16.73
2016-09-17T06:54:19.995Z,16.7
2016-09-17T06:55:19.955Z,16.82
2016-09-17T06:56:19.929Z,16.76
2016-09-17T06:57:19.913Z,16.84
2016-09-17T06:58:20.066Z,16.9
2016-09-17T06:59:20.012Z,16.91
2016-09-17T07:00:20.031Z,16.97
2016-09-17T07:01:20.011Z,16.97
2016-09-17T07:02:19.937Z,17.02
2016-09-17T07:03:20.044Z,17.1
2016-09-17T07:04:19.976Z,17.06
2016-09-17T07:05:20.030Z,17.17
2016-09-17T07:06:20.026Z,17.12
2016-09-17T07:07:20.041Z,17.32
2016-09-17T07:08:19.994Z,17.35
2016-09-17T07:09:20.078Z,17.22
2016-09-17T07:10:20.075Z,17.35
2016-09-17T07:11:20.032Z,17.27
2016-09-17T07:12:20.064Z,17.38
2016-09-17T07:13:20.010Z,17.2
2016-09-17T07:14:20.093Z,17.22
2016-09-17T07:15:20.037Z,17.27
2016-09-17T07:16:20.081Z,17.18
2016-09-17T07:17:19.986Z,17.27
2016-09-17T07:18:19.975Z,17.36
2016-09-17T07:19:20.035Z,17.36
2016-09-17T07:20:20.023Z,17.45
2016-09-17T07:21:20.099Z,17.46
2016-09-17T07:22:20.066Z,17.5
2016-09-17T07:23:20.038Z,17.5
2016-09-17T07:24:20.032Z,17.46
2016-09-17T07:25:20.122Z,17.49
2016-09-17T07:26:20.129Z,17.52
2016-09-17T07:27:20.006Z,17.57
2016-09-17T07:28:20.127Z,17.71
2016-09-17T07:29:20.136Z,17.71
2016-09-17T07:30:20.128Z,17.66
2016-09-17T07:31:20.136Z,17.71
2016-09-17T07:32:20.075Z,17.68
2016-09-17T07:33:20.095Z,17.66
2016-09-17T07:34:20.081Z,17.79
2016-09-17T07:35:20.030Z,17.92
2016-09-17T07:36:20.170Z,17.83
2016-09-17T07:37:20.128Z,17.8
2016-09-17T07:38:20.114Z,17.74
2016-09-17T07:39:20.162Z,17.77
2016-09-17T07:40:20.172Z,17.79
2016-09-17T07:41:20.127Z,17.66
2016-09-17T07:42:20.093Z,17.73
2016-09-17T07:43:20.153Z,17.77
2016-09-17T07:44:20.143Z,17.65
2016-09-17T07:45:20.059Z,17.74
2016-09-17T07:46:20.109Z,17.68
2016-09-17T07:47:20.219Z,17.69
2016-09-17T07:48:20.137Z,17.73
2016-09-17T07:49:20.197Z,17.81
2016-09-17T07:50:20.104Z,17.88
2016-09-17T07:51:20.208Z,17.86
2016-09-17T07:52:20.151Z,17.95
2016-09-17T07:53:20.170Z,17.87
2016-09-17T07:54:20.119Z,17.95
2016-09-17T07:55:20.211Z,17.98
2016-09-17T07:56:20.173Z,17.95
2016-09-17T07:57:20.139Z,18.02
2016-09-17T07:58:20.063Z,18.02
2016-09-17T07:59:20.214Z,18.08
2016-09-17T08:00:20.117Z,18.05
2016-09-17T08:01:20.222Z,18.14
2016-09-17T08:02:20.195Z,18.11
2016-09-17T08:03:20.090Z,18.2
2016-09-17T08:04:20.171Z,18.14
2016-09-17T08:05:20.233Z,18.19
2016-09-17T08:07:20.179Z,18.14
2016-09-17T08:08:20.125Z,18.2
2016-09-17T08:09:20.166Z,18.24
2016-09-17T08:10:20.131Z,18.19
2016-09-17T08:11:20.128Z,18.17
2016-09-17T08:12:20.173Z,18.21
2016-09-17T08:13:20.184Z,18.1
2016-09-17T08:14:20.205Z,18.24
2016-09-17T08:15:20.273Z,18.23
2016-09-17T08:16:20.280Z,18.31
2016-09-17T08:17:20.200Z,18.35
2016-09-17T08:18:20.245Z,18.32
2016-09-17T08:19:20.275Z,18.23
2016-09-17T08:20:20.208Z,18.31
2016-09-17T08:21:20.167Z,18.41
2016-09-17T08:22:20.300Z,18.49
2016-09-17T08:23:20.252Z,18.45
2016-09-17T08:24:20.283Z,18.44
2016-09-17T08:25:20.229Z,18.42
2016-09-17T08:26:20.208Z,18.45
2016-09-17T08:27:20.150Z,18.44
2016-09-17T08:28:20.306Z,18.47
2016-09-17T08:29:20.231Z,18.49
2016-09-17T08:30:20.231Z,18.47
2016-09-17T08:31:20.309Z,18.51
2016-09-17T08:32:20.330Z,18.44
2016-09-17T08:33:20.326Z,18.42
2016-09-17T08:34:20.215Z,18.49
2016-09-17T08:35:20.245Z,18.5
2016-09-17T08:36:20.231Z,18.38
2016-09-17T08:37:20.214Z,18.47
2016-09-17T08:38:20.298Z,18.39
2016-09-17T08:39:20.261Z,18.41
2016-09-17T08:40:20.284Z,18.56
2016-09-17T08:41:20.356Z,18.44
2016-09-17T08:42:20.344Z,18.5
2016-09-17T08:43:20.302Z,18.53
2016-09-17T08:44:20.296Z,18.5
2016-09-17T08:45:20.225Z,18.6
2016-09-17T08:46:20.276Z,18.56
2016-09-17T08:47:20.209Z,18.5
2016-09-17T08:48:20.341Z,18.57
2016-09-17T08:49:20.353Z,18.6
2016-09-17T08:50:20.370Z,18.63
2016-09-17T08:51:20.302Z,18.68
2016-09-17T08:52:20.357Z,18.66
2016-09-17T08:53:20.377Z,18.72
2016-09-17T08:54:20.363Z,18.72
2016-09-17T08:55:20.320Z,18.66
2016-09-17T08:56:20.310Z,18.6
2016-09-17T08:57:20.310Z,18.63
2016-09-17T08:58:20.316Z,18.72
2016-09-17T08:59:20.975Z,18.68
2016-09-17T09:00:20.409Z,18.76
2016-09-17T09:01:20.410Z,18.86
2016-09-17T09:02:20.437Z,18.93
2016-09-17T09:03:20.384Z,18.82
2016-09-17T09:04:21.472Z,18.86
2016-09-17T09:05:20.347Z,18.84
2016-09-17T09:06:20.364Z,18.96
2016-09-17T09:07:20.377Z,18.94
2016-09-17T09:08:20.437Z,18.84
2016-09-17T09:09:20.420Z,18.78
2016-09-17T09:10:20.365Z,18.9
2016-09-17T09:11:20.424Z,18.99
2016-09-17T09:12:20.388Z,18.9
2016-09-17T09:13:20.299Z,18.94
2016-09-17T09:14:20.441Z,18.99
2016-09-17T09:15:20.424Z,19.12
2016-09-17T09:16:20.359Z,19.17
2016-09-17T09:17:20.332Z,19.19
2016-09-17T09:18:20.344Z,19.05
2016-09-17T09:19:20.409Z,19.15
2016-09-17T09:20:20.405Z,19.09
2016-09-17T09:21:20.388Z,19.24
2016-09-17T09:22:20.387Z,19.09
2016-09-17T09:23:20.425Z,19.2
2016-09-17T09:24:20.406Z,19.23
2016-09-17T09:25:20.418Z,19.25
2016-09-17T09:26:20.314Z,19.38
2016-09-17T09:27:20.399Z,19.3
2016-09-17T09:28:20.480Z,19.28
2016-09-17T09:29:20.554Z,19.13
2016-09-17T09:30:20.491Z,19.23
2016-09-17T09:31:20.556Z,19.17
2016-09-17T09:32:20.435Z,19.2
2016-09-17T09:33:20.445Z,19.2
2016-09-17T09:34:20.507Z,19.32
2016-09-17T09:35:20.523Z,19.32
2016-09-17T09:36:20.393Z,19.27
2016-09-17T09:37:20.529Z,19.28
2016-09-17T09:38:20.584Z,19.19
2016-09-17T09:39:20.534Z,19.27
2016-09-17T09:40:20.488Z,19.3
2016-09-17T09:41:22.466Z,19.27
2016-09-17T09:42:20.505Z,19.25
2016-09-17T09:43:20.409Z,19.37
2016-09-17T09:44:20.383Z,19.37
2016-09-17T09:45:20.492Z,19.5
2016-09-17T09:46:20.497Z,19.47
2016-09-17T09:47:20.447Z,19.4
2016-09-17T09:48:20.660Z,19.45
2016-09-17T09:49:20.506Z,19.37
2016-09-17T09:50:20.470Z,19.43
2016-09-17T09:51:20.459Z,19.24
2016-09-17T09:52:20.590Z,19.32
2016-09-17T09:53:20.401Z,19.27
2016-09-17T09:54:20.488Z,19.38
2016-09-17T09:55:20.503Z,19.37
2016-09-17T09:56:20.502Z,19.35
2016-09-17T09:57:20.448Z,19.3
2016-09-17T09:58:20.553Z,19.38
2016-09-17T09:59:20.530Z,19.37
2016-09-17T10:00:20.580Z,19.42
2016-09-17T10:01:20.799Z,19.43
2016-09-17T10:02:20.466Z,19.42
2016-09-17T10:03:20.594Z,19.49
2016-09-17T10:04:20.512Z,19.42
2016-09-17T10:05:20.593Z,19.47
2016-09-17T10:06:20.650Z,19.49
2016-09-17T10:07:20.516Z,19.49
2016-09-17T10:08:20.524Z,19.43
2016-09-17T10:09:20.534Z,19.5
2016-09-17T10:10:20.565Z,19.52
2016-09-17T10:11:20.621Z,19.52
2016-09-17T10:12:20.566Z,19.46
2016-09-17T10:13:20.549Z,19.6
2016-09-17T10:14:20.535Z,19.6
2016-09-17T10:15:20.530Z,19.57
2016-09-17T10:16:20.565Z,19.64
2016-09-17T10:17:20.456Z,19.75
2016-09-17T10:18:21.761Z,19.71
2016-09-17T10:19:20.487Z,19.79
2016-09-17T10:20:20.651Z,19.68
2016-09-17T10:21:20.635Z,19.68
2016-09-17T10:22:20.553Z,19.71
2016-09-17T10:23:20.520Z,19.87
2016-09-17T10:24:20.633Z,19.9
2016-09-17T10:25:20.603Z,19.97
2016-09-17T10:26:20.572Z,19.85
2016-09-17T10:27:20.568Z,19.93
2016-09-17T10:28:20.573Z,19.87
2016-09-17T10:29:20.640Z,19.98
2016-09-17T10:30:20.580Z,19.95
2016-09-17T10:31:20.661Z,19.9
2016-09-17T10:32:20.677Z,19.95
2016-09-17T10:33:20.550Z,19.97
2016-09-17T10:34:20.587Z,20.08
2016-09-17T10:35:20.634Z,20.19
2016-09-17T10:36:20.629Z,20.25
2016-09-17T10:37:20.636Z,20.26
2016-09-17T10:38:20.682Z,20.12
2016-09-17T10:39:20.683Z,20.1
2016-09-17T10:40:20.652Z,20.07
2016-09-17T10:41:20.653Z,20.07
2016-09-17T10:42:20.643Z,20.1
2016-09-17T10:43:20.706Z,19.87
2016-09-17T10:44:20.627Z,19.87
2016-09-17T10:45:20.636Z,19.83
2016-09-17T10:46:20.714Z,19.87
2016-09-17T10:47:20.603Z,19.83
2016-09-17T10:48:20.796Z,19.8
2016-09-17T10:49:20.702Z,19.85
2016-09-17T10:50:20.620Z,20
2016-09-17T10:51:20.737Z,20.08
2016-09-17T10:52:20.647Z,20.29
2016-09-17T10:53:20.602Z,20.4
2016-09-17T10:54:20.728Z,20.38
2016-09-17T10:55:20.595Z,20.42
2016-09-17T10:56:20.708Z,20.53
2016-09-17T10:57:20.737Z,20.63
2016-09-17T10:58:20.679Z,20.63
2016-09-17T10:59:20.745Z,20.82
2016-09-17T11:00:20.708Z,20.71
2016-09-17T11:01:20.702Z,20.66
2016-09-17T11:02:20.712Z,20.76
2016-09-17T11:03:20.685Z,20.75
2016-09-17T11:04:20.679Z,20.68
2016-09-17T11:05:20.769Z,20.82
2016-09-17T11:06:20.736Z,20.79
2016-09-17T11:07:20.786Z,20.96
2016-09-17T11:08:20.789Z,20.94
2016-09-17T11:09:20.768Z,20.97
2016-09-17T11:10:20.744Z,20.91
2016-09-17T11:11:20.701Z,20.74
2016-09-17T11:12:20.793Z,20.6
2016-09-17T11:13:20.665Z,20.76
2016-09-17T11:14:20.790Z,20.71
2016-09-17T11:15:20.711Z,20.75
2016-09-17T11:16:20.758Z,20.58
2016-09-17T11:17:20.642Z,20.51
2016-09-17T11:18:20.739Z,20.3
2016-09-17T11:19:20.717Z,20.41
2016-09-17T11:20:20.761Z,20.42
2016-09-17T11:21:20.808Z,20.44
2016-09-17T11:22:20.769Z,20.44
2016-09-17T11:23:20.835Z,20.34
2016-09-17T11:24:20.787Z,20.35
2016-09-17T11:25:20.833Z,20.37
2016-09-17T11:26:20.826Z,20.48
2016-09-17T11:27:20.719Z,20.44
2016-09-17T11:28:20.707Z,20.58
2016-09-17T11:29:20.827Z,20.58
2016-09-17T11:30:20.703Z,20.66
2016-09-17T11:31:20.842Z,20.61
2016-09-17T11:32:20.832Z,20.6
2016-09-17T11:33:20.692Z,20.67
2016-09-17T11:34:20.775Z,20.61
2016-09-17T11:35:20.777Z,20.64
2016-09-17T11:36:20.859Z,20.64
2016-09-17T11:37:20.863Z,20.58
2016-09-17T11:38:20.784Z,20.58
2016-09-17T11:39:20.863Z,20.66
2016-09-17T11:40:20.818Z,20.64
2016-09-17T11:41:20.843Z,20.64
2016-09-17T11:42:20.798Z,20.51
2016-09-17T11:43:20.872Z,20.57
2016-09-17T11:44:20.881Z,20.51
2016-09-17T11:45:20.865Z,20.42
2016-09-17T11:46:20.868Z,20.53
2016-09-17T11:47:20.719Z,20.57
2016-09-17T11:48:20.891Z,20.58
2016-09-17T11:49:20.843Z,20.6
2016-09-17T11:50:20.855Z,20.63
2016-09-17T11:51:20.812Z,20.67
2016-09-17T11:52:20.867Z,20.63
2016-09-17T11:53:20.907Z,20.54
2016-09-17T11:54:20.822Z,20.58
2016-09-17T11:55:20.885Z,20.56
2016-09-17T11:56:20.828Z,20.61
2016-09-17T11:57:20.791Z,20.66
2016-09-17T11:58:20.837Z,20.61
2016-09-17T11:59:20.857Z,20.6
2016-09-17T12:00:20.893Z,20.58
2016-09-17T12:01:20.951Z,20.58
2016-09-17T12:02:20.861Z,20.64
2016-09-17T12:03:20.898Z,20.75
2016-09-17T12:04:20.855Z,20.78
2016-09-17T12:05:20.843Z,20.86
2016-09-17T12:06:20.935Z,20.91
2016-09-17T12:07:20.868Z,20.96
2016-09-17T12:08:20.938Z,20.94
2016-09-17T12:09:21.157Z,20.76
2016-09-17T12:10:20.815Z,20.79
2016-09-17T12:11:21.270Z,20.75
2016-09-17T12:12:20.835Z,20.78
2016-09-17T12:13:20.914Z,20.6
2016-09-17T12:14:20.825Z,20.71
2016-09-17T12:15:20.953Z,20.78
2016-09-17T12:16:20.844Z,20.86
2016-09-17T12:17:20.899Z,20.86
2016-09-17T12:18:20.893Z,20.93
2016-09-17T12:19:20.900Z,20.93
2016-09-17T12:20:20.925Z,20.93
2016-09-17T12:21:20.944Z,20.91
2016-09-17T12:22:20.929Z,20.97
2016-09-17T12:23:20.898Z,20.96
2016-09-17T12:24:20.947Z,21.08
2016-09-17T12:25:21.003Z,21.04
2016-09-17T12:26:21.001Z,20.96
2016-09-17T12:27:20.970Z,20.94
2016-09-17T12:28:20.991Z,20.88
2016-09-17T12:29:20.921Z,20.9
2016-09-17T12:30:20.886Z,20.78
2016-09-17T12:31:21.044Z,20.58
2016-09-17T12:32:20.922Z,20.57
2016-09-17T12:33:20.929Z,20.42
2016-09-17T12:34:20.991Z,20.41
2016-09-17T12:35:20.954Z,20.3
2016-09-17T12:36:21.005Z,20.23
2016-09-17T12:37:20.987Z,20.27
2016-09-17T12:38:20.941Z,20.26
2016-09-17T12:39:21.037Z,20.27
2016-09-17T12:40:20.956Z,20.27
2016-09-17T12:41:21.041Z,20.27
2016-09-17T12:42:21.049Z,20.34
2016-09-17T12:43:20.967Z,20.49
2016-09-17T12:44:21.166Z,20.49
2016-09-17T12:45:21.009Z,20.61
2016-09-17T12:46:21.038Z,20.51
2016-09-17T12:47:20.990Z,20.25
2016-09-17T12:48:21.028Z,20.22
2016-09-17T12:49:21.027Z,20.25
2016-09-17T12:50:20.973Z,20.27
2016-09-17T12:51:21.018Z,20.3
2016-09-17T12:52:21.034Z,20.25
2016-09-17T12:53:21.040Z,20.23
2016-09-17T12:54:21.006Z,20.19
2016-09-17T12:55:20.968Z,20.23
2016-09-17T12:56:20.934Z,20.3